sensor_id;sensor_type;location;lat;lon;timestamp;P1;durP1;ratioP1;P2;durP2;ratioP2
74080;SDS011;62438;52.228;6.864;2022-11-20T00:00:37;18.35;;;8.32;;
74080;SDS011;62438;52.228;6.864;2022-11-20T00:02:38;18.30;;;7.93;;
74080;SDS011;62438;52.228;6.864;2022-11-20T00:04:38;16.20;;;7.80;;
74080;SDS011;62438;52.228;6.864;2022-11-20T00:06:39;18.55;;;8.57;;
74080;SDS011;62438;52.228;6.864;2022-11-20T00:08:39;19.90;;;8.07;;
74080;SDS011;62438;52.228;6.864;2022-11-20T00:10:40;19.27;;;6.78;;
74080;SDS011;62438;52.228;6.864;2022-11-20T00:12:40;17.85;;;7.63;;
74080;SDS011;62438;52.228;6.864;2022-11-20T00:14:41;23.80;;;8.50;;
74080;SDS011;62438;52.228;6.864;2022-11-20T00:16:41;21.17;;;7.68;;
74080;SDS011;62438;52.228;6.864;2022-11-20T00:18:42;20.08;;;7.82;;
74080;SDS011;62438;52.228;6.864;2022-11-20T00:20:43;18.52;;;8.07;;
74080;SDS011;62438;52.228;6.864;2022-11-20T00:22:44;19.42;;;8.45;;
74080;SDS011;62438;52.228;6.864;2022-11-20T00:24:44;19.63;;;8.88;;
74080;SDS011;62438;52.228;6.864;2022-11-20T00:26:44;17.90;;;7.90;;
74080;SDS011;62438;52.228;6.864;2022-11-20T00:28:49;19.25;;;7.47;;
74080;SDS011;62438;52.228;6.864;2022-11-20T00:30:50;18.73;;;7.35;;
74080;SDS011;62438;52.228;6.864;2022-11-20T00:32:51;22.45;;;8.95;;
74080;SDS011;62438;52.228;6.864;2022-11-20T00:34:51;19.45;;;8.52;;
74080;SDS011;62438;52.228;6.864;2022-11-20T00:36:52;17.73;;;8.00;;
74080;SDS011;62438;52.228;6.864;2022-11-20T00:38:53;21.90;;;9.10;;
74080;SDS011;62438;52.228;6.864;2022-11-20T00:40:55;22.45;;;8.18;;
74080;SDS011;62438;52.228;6.864;2022-11-20T00:43:00;21.30;;;8.15;;
74080;SDS011;62438;52.228;6.864;2022-11-20T00:45:01;23.77;;;10.65;;
74080;SDS011;62438;52.228;6.864;2022-11-20T00:47:01;24.13;;;11.20;;
74080;SDS011;62438;52.228;6.864;2022-11-20T00:49:02;22.60;;;10.43;;
74080;SDS011;62438;52.228;6.864;2022-11-20T00:51:02;22.50;;;10.82;;
74080;SDS011;62438;52.228;6.864;2022-11-20T00:53:03;19.95;;;8.73;;
74080;SDS011;62438;52.228;6.864;2022-11-20T00:55:03;24.23;;;9.48;;
74080;SDS011;62438;52.228;6.864;2022-11-20T00:57:04;20.92;;;9.10;;
74080;SDS011;62438;52.228;6.864;2022-11-20T00:59:04;21.85;;;9.23;;
74080;SDS011;62438;52.228;6.864;2022-11-20T01:01:12;22.55;;;10.02;;
74080;SDS011;62438;52.228;6.864;2022-11-20T01:03:15;20.88;;;9.88;;
74080;SDS011;62438;52.228;6.864;2022-11-20T01:05:17;21.23;;;10.30;;
74080;SDS011;62438;52.228;6.864;2022-11-20T01:07:17;19.08;;;8.77;;
74080;SDS011;62438;52.228;6.864;2022-11-20T01:09:17;19.83;;;9.10;;
74080;SDS011;62438;52.228;6.864;2022-11-20T01:11:19;22.63;;;9.77;;
74080;SDS011;62438;52.228;6.864;2022-11-20T01:13:21;18.45;;;8.50;;
74080;SDS011;62438;52.228;6.864;2022-11-20T01:15:51;21.58;;;8.32;;
74080;SDS011;62438;52.228;6.864;2022-11-20T01:17:52;21.02;;;8.60;;
74080;SDS011;62438;52.228;6.864;2022-11-20T01:19:52;18.23;;;6.88;;
74080;SDS011;62438;52.228;6.864;2022-11-20T01:21:53;20.30;;;8.25;;
74080;SDS011;62438;52.228;6.864;2022-11-20T01:23:54;19.75;;;8.25;;
74080;SDS011;62438;52.228;6.864;2022-11-20T01:25:54;18.40;;;8.68;;
74080;SDS011;62438;52.228;6.864;2022-11-20T01:27:55;17.77;;;8.18;;
74080;SDS011;62438;52.228;6.864;2022-11-20T01:29:56;21.27;;;8.45;;
74080;SDS011;62438;52.228;6.864;2022-11-20T01:31:56;27.70;;;11.00;;
74080;SDS011;62438;52.228;6.864;2022-11-20T01:33:57;27.20;;;10.90;;
74080;SDS011;62438;52.228;6.864;2022-11-20T01:36:03;30.98;;;11.38;;
74080;SDS011;62438;52.228;6.864;2022-11-20T01:38:05;31.42;;;12.05;;
74080;SDS011;62438;52.228;6.864;2022-11-20T01:40:05;28.85;;;10.75;;
74080;SDS011;62438;52.228;6.864;2022-11-20T01:42:07;27.80;;;11.45;;
74080;SDS011;62438;52.228;6.864;2022-11-20T01:53:12;24.73;;;9.25;;
74080;SDS011;62438;52.228;6.864;2022-11-20T01:55:21;24.33;;;10.00;;
74080;SDS011;62438;52.228;6.864;2022-11-20T01:57:24;22.90;;;9.25;;
74080;SDS011;62438;52.228;6.864;2022-11-20T01:59:28;22.42;;;8.98;;
74080;SDS011;62438;52.228;6.864;2022-11-20T02:01:29;24.38;;;9.48;;
74080;SDS011;62438;52.228;6.864;2022-11-20T02:03:29;19.83;;;7.63;;
74080;SDS011;62438;52.228;6.864;2022-11-20T02:07:37;23.02;;;8.55;;
74080;SDS011;62438;52.228;6.864;2022-11-20T02:09:38;21.48;;;9.30;;
74080;SDS011;62438;52.228;6.864;2022-11-20T02:11:38;26.02;;;9.80;;
74080;SDS011;62438;52.228;6.864;2022-11-20T02:13:38;20.02;;;8.57;;
74080;SDS011;62438;52.228;6.864;2022-11-20T02:15:45;20.02;;;8.30;;
74080;SDS011;62438;52.228;6.864;2022-11-20T02:17:46;20.05;;;9.60;;
74080;SDS011;62438;52.228;6.864;2022-11-20T02:19:48;20.55;;;7.65;;
74080;SDS011;62438;52.228;6.864;2022-11-20T02:26:06;17.15;;;8.23;;
74080;SDS011;62438;52.228;6.864;2022-11-20T02:28:11;22.98;;;9.13;;
74080;SDS011;62438;52.228;6.864;2022-11-20T02:30:11;25.70;;;11.70;;
74080;SDS011;62438;52.228;6.864;2022-11-20T02:32:22;22.65;;;9.75;;
74080;SDS011;62438;52.228;6.864;2022-11-20T02:34:34;27.23;;;12.10;;
74080;SDS011;62438;52.228;6.864;2022-11-20T02:36:34;27.30;;;13.23;;
74080;SDS011;62438;52.228;6.864;2022-11-20T02:38:36;31.13;;;11.65;;
74080;SDS011;62438;52.228;6.864;2022-11-20T02:40:36;25.40;;;10.48;;
74080;SDS011;62438;52.228;6.864;2022-11-20T02:42:37;27.48;;;10.25;;
74080;SDS011;62438;52.228;6.864;2022-11-20T02:44:37;23.33;;;9.90;;
74080;SDS011;62438;52.228;6.864;2022-11-20T02:46:38;24.98;;;10.52;;
74080;SDS011;62438;52.228;6.864;2022-11-20T02:48:38;20.15;;;9.38;;
74080;SDS011;62438;52.228;6.864;2022-11-20T02:50:39;21.63;;;8.98;;
74080;SDS011;62438;52.228;6.864;2022-11-20T02:52:40;24.70;;;9.98;;
74080;SDS011;62438;52.228;6.864;2022-11-20T02:54:40;23.05;;;9.20;;
74080;SDS011;62438;52.228;6.864;2022-11-20T02:56:41;20.13;;;9.48;;
74080;SDS011;62438;52.228;6.864;2022-11-20T02:58:41;23.45;;;8.85;;
74080;SDS011;62438;52.228;6.864;2022-11-20T03:00:42;25.20;;;9.73;;
74080;SDS011;62438;52.228;6.864;2022-11-20T03:02:42;22.17;;;9.60;;
74080;SDS011;62438;52.228;6.864;2022-11-20T03:04:42;23.13;;;10.05;;
74080;SDS011;62438;52.228;6.864;2022-11-20T03:06:43;22.23;;;10.02;;
74080;SDS011;62438;52.228;6.864;2022-11-20T03:08:43;20.52;;;8.27;;
74080;SDS011;62438;52.228;6.864;2022-11-20T03:10:44;25.33;;;10.50;;
74080;SDS011;62438;52.228;6.864;2022-11-20T03:12:44;25.45;;;8.93;;
74080;SDS011;62438;52.228;6.864;2022-11-20T03:14:45;23.67;;;9.80;;
74080;SDS011;62438;52.228;6.864;2022-11-20T03:16:45;22.02;;;9.27;;
74080;SDS011;62438;52.228;6.864;2022-11-20T03:18:46;20.95;;;7.90;;
74080;SDS011;62438;52.228;6.864;2022-11-20T03:20:47;22.13;;;9.13;;
74080;SDS011;62438;52.228;6.864;2022-11-20T03:22:47;18.55;;;7.88;;
74080;SDS011;62438;52.228;6.864;2022-11-20T03:24:48;25.42;;;8.93;;
74080;SDS011;62438;52.228;6.864;2022-11-20T03:26:48;18.38;;;8.07;;
74080;SDS011;62438;52.228;6.864;2022-11-20T03:28:50;22.42;;;8.20;;
74080;SDS011;62438;52.228;6.864;2022-11-20T03:30:55;21.10;;;8.32;;
74080;SDS011;62438;52.228;6.864;2022-11-20T03:32:55;21.40;;;9.32;;
74080;SDS011;62438;52.228;6.864;2022-11-20T03:34:56;20.85;;;9.10;;
74080;SDS011;62438;52.228;6.864;2022-11-20T03:36:56;19.48;;;8.02;;
74080;SDS011;62438;52.228;6.864;2022-11-20T03:38:57;23.95;;;9.05;;
74080;SDS011;62438;52.228;6.864;2022-11-20T03:40:58;20.67;;;8.00;;
74080;SDS011;62438;52.228;6.864;2022-11-20T03:43:00;18.88;;;6.90;;
74080;SDS011;62438;52.228;6.864;2022-11-20T03:45:01;24.02;;;8.65;;
74080;SDS011;62438;52.228;6.864;2022-11-20T03:47:01;24.77;;;7.72;;
74080;SDS011;62438;52.228;6.864;2022-11-20T03:49:01;17.60;;;7.22;;
74080;SDS011;62438;52.228;6.864;2022-11-20T03:51:06;23.10;;;9.23;;
74080;SDS011;62438;52.228;6.864;2022-11-20T03:53:08;20.48;;;7.70;;
74080;SDS011;62438;52.228;6.864;2022-11-20T03:55:08;16.10;;;7.40;;
74080;SDS011;62438;52.228;6.864;2022-11-20T03:57:09;17.88;;;6.85;;
74080;SDS011;62438;52.228;6.864;2022-11-20T03:59:09;18.40;;;6.47;;
74080;SDS011;62438;52.228;6.864;2022-11-20T04:01:14;21.45;;;6.25;;
74080;SDS011;62438;52.228;6.864;2022-11-20T04:03:16;17.15;;;6.40;;
74080;SDS011;62438;52.228;6.864;2022-11-20T04:05:17;15.48;;;6.55;;
74080;SDS011;62438;52.228;6.864;2022-11-20T04:07:17;18.38;;;6.65;;
74080;SDS011;62438;52.228;6.864;2022-11-20T04:09:17;18.98;;;7.43;;
74080;SDS011;62438;52.228;6.864;2022-11-20T04:11:19;14.70;;;6.10;;
74080;SDS011;62438;52.228;6.864;2022-11-20T04:13:21;19.52;;;7.65;;
74080;SDS011;62438;52.228;6.864;2022-11-20T04:15:21;18.35;;;6.22;;
74080;SDS011;62438;52.228;6.864;2022-11-20T04:17:22;19.48;;;6.50;;
74080;SDS011;62438;52.228;6.864;2022-11-20T04:19:22;14.50;;;6.88;;
74080;SDS011;62438;52.228;6.864;2022-11-20T04:21:23;17.85;;;8.10;;
74080;SDS011;62438;52.228;6.864;2022-11-20T04:23:24;18.35;;;7.00;;
74080;SDS011;62438;52.228;6.864;2022-11-20T04:25:24;16.40;;;6.45;;
74080;SDS011;62438;52.228;6.864;2022-11-20T04:27:25;17.58;;;7.43;;
74080;SDS011;62438;52.228;6.864;2022-11-20T04:29:25;18.65;;;6.47;;
74080;SDS011;62438;52.228;6.864;2022-11-20T04:31:26;17.17;;;6.47;;
74080;SDS011;62438;52.228;6.864;2022-11-20T04:33:28;17.15;;;6.90;;
74080;SDS011;62438;52.228;6.864;2022-11-20T04:35:29;19.60;;;6.40;;
74080;SDS011;62438;52.228;6.864;2022-11-20T04:37:29;15.60;;;6.45;;
74080;SDS011;62438;52.228;6.864;2022-11-20T04:39:30;18.30;;;6.60;;
74080;SDS011;62438;52.228;6.864;2022-11-20T04:41:31;17.17;;;6.88;;
74080;SDS011;62438;52.228;6.864;2022-11-20T04:43:33;15.82;;;6.13;;
74080;SDS011;62438;52.228;6.864;2022-11-20T04:45:34;17.75;;;8.25;;
74080;SDS011;62438;52.228;6.864;2022-11-20T04:47:34;19.02;;;7.65;;
74080;SDS011;62438;52.228;6.864;2022-11-20T04:49:35;14.45;;;6.05;;
74080;SDS011;62438;52.228;6.864;2022-11-20T04:51:35;17.25;;;6.60;;
74080;SDS011;62438;52.228;6.864;2022-11-20T04:53:35;16.95;;;7.32;;
74080;SDS011;62438;52.228;6.864;2022-11-20T04:55:36;19.65;;;7.60;;
74080;SDS011;62438;52.228;6.864;2022-11-20T04:57:36;16.45;;;6.95;;
74080;SDS011;62438;52.228;6.864;2022-11-20T04:59:37;17.67;;;7.10;;
74080;SDS011;62438;52.228;6.864;2022-11-20T05:01:37;16.90;;;6.57;;
74080;SDS011;62438;52.228;6.864;2022-11-20T05:03:38;19.35;;;7.72;;
74080;SDS011;62438;52.228;6.864;2022-11-20T05:05:39;17.73;;;6.88;;
74080;SDS011;62438;52.228;6.864;2022-11-20T05:07:39;14.98;;;5.95;;
74080;SDS011;62438;52.228;6.864;2022-11-20T05:09:40;18.15;;;7.18;;
74080;SDS011;62438;52.228;6.864;2022-11-20T05:11:40;16.38;;;7.65;;
74080;SDS011;62438;52.228;6.864;2022-11-20T05:13:41;20.20;;;7.55;;
74080;SDS011;62438;52.228;6.864;2022-11-20T05:15:42;22.20;;;8.13;;
74080;SDS011;62438;52.228;6.864;2022-11-20T05:17:51;18.38;;;6.93;;
74080;SDS011;62438;52.228;6.864;2022-11-20T05:19:52;16.73;;;6.40;;
74080;SDS011;62438;52.228;6.864;2022-11-20T05:21:52;16.63;;;6.18;;
74080;SDS011;62438;52.228;6.864;2022-11-20T05:23:53;15.85;;;5.75;;
74080;SDS011;62438;52.228;6.864;2022-11-20T05:25:54;14.30;;;6.75;;
74080;SDS011;62438;52.228;6.864;2022-11-20T05:27:55;16.13;;;7.22;;
74080;SDS011;62438;52.228;6.864;2022-11-20T05:29:56;19.30;;;8.50;;
74080;SDS011;62438;52.228;6.864;2022-11-20T05:31:56;18.35;;;6.57;;
74080;SDS011;62438;52.228;6.864;2022-11-20T05:33:57;21.35;;;7.75;;
74080;SDS011;62438;52.228;6.864;2022-11-20T05:35:58;21.75;;;7.90;;
74080;SDS011;62438;52.228;6.864;2022-11-20T05:37:58;18.02;;;7.25;;
74080;SDS011;62438;52.228;6.864;2022-11-20T05:39:59;15.98;;;6.72;;
74080;SDS011;62438;52.228;6.864;2022-11-20T05:41:59;15.90;;;6.53;;
74080;SDS011;62438;52.228;6.864;2022-11-20T05:44:18;16.38;;;6.10;;
74080;SDS011;62438;52.228;6.864;2022-11-20T05:48:21;17.87;;;5.87;;
74080;SDS011;62438;52.228;6.864;2022-11-20T05:50:22;20.02;;;7.18;;
74080;SDS011;62438;52.228;6.864;2022-11-20T05:52:22;13.73;;;6.03;;
74080;SDS011;62438;52.228;6.864;2022-11-20T05:54:23;18.85;;;7.25;;
74080;SDS011;62438;52.228;6.864;2022-11-20T05:56:23;15.23;;;6.65;;
74080;SDS011;62438;52.228;6.864;2022-11-20T05:58:23;18.60;;;6.93;;
74080;SDS011;62438;52.228;6.864;2022-11-20T06:00:24;23.25;;;8.88;;
74080;SDS011;62438;52.228;6.864;2022-11-20T06:02:24;17.60;;;7.47;;
74080;SDS011;62438;52.228;6.864;2022-11-20T06:04:25;22.55;;;8.85;;
74080;SDS011;62438;52.228;6.864;2022-11-20T06:06:25;22.80;;;9.32;;
74080;SDS011;62438;52.228;6.864;2022-11-20T06:08:26;19.65;;;8.65;;
74080;SDS011;62438;52.228;6.864;2022-11-20T06:10:26;20.70;;;8.40;;
74080;SDS011;62438;52.228;6.864;2022-11-20T06:12:27;19.80;;;7.75;;
74080;SDS011;62438;52.228;6.864;2022-11-20T06:14:27;22.50;;;8.02;;
74080;SDS011;62438;52.228;6.864;2022-11-20T06:16:27;20.35;;;8.18;;
74080;SDS011;62438;52.228;6.864;2022-11-20T06:18:28;19.23;;;8.02;;
74080;SDS011;62438;52.228;6.864;2022-11-20T06:20:29;22.88;;;9.48;;
74080;SDS011;62438;52.228;6.864;2022-11-20T06:22:29;16.98;;;8.57;;
74080;SDS011;62438;52.228;6.864;2022-11-20T06:24:30;17.25;;;7.75;;
74080;SDS011;62438;52.228;6.864;2022-11-20T06:26:30;16.55;;;6.93;;
74080;SDS011;62438;52.228;6.864;2022-11-20T06:28:31;23.27;;;9.75;;
74080;SDS011;62438;52.228;6.864;2022-11-20T06:30:32;20.75;;;9.23;;
74080;SDS011;62438;52.228;6.864;2022-11-20T06:32:32;24.20;;;9.65;;
74080;SDS011;62438;52.228;6.864;2022-11-20T06:34:33;20.88;;;8.07;;
74080;SDS011;62438;52.228;6.864;2022-11-20T06:36:33;19.10;;;8.05;;
74080;SDS011;62438;52.228;6.864;2022-11-20T06:38:33;20.10;;;7.68;;
74080;SDS011;62438;52.228;6.864;2022-11-20T06:40:34;18.45;;;7.13;;
74080;SDS011;62438;52.228;6.864;2022-11-20T06:42:34;19.38;;;8.43;;
74080;SDS011;62438;52.228;6.864;2022-11-20T06:44:34;21.17;;;9.35;;
74080;SDS011;62438;52.228;6.864;2022-11-20T06:46:35;18.95;;;8.85;;
74080;SDS011;62438;52.228;6.864;2022-11-20T06:48:35;20.23;;;8.57;;
74080;SDS011;62438;52.228;6.864;2022-11-20T06:50:36;20.92;;;8.23;;
74080;SDS011;62438;52.228;6.864;2022-11-20T06:52:37;20.27;;;7.07;;
74080;SDS011;62438;52.228;6.864;2022-11-20T06:54:38;19.77;;;8.00;;
74080;SDS011;62438;52.228;6.864;2022-11-20T06:56:38;20.33;;;8.63;;
74080;SDS011;62438;52.228;6.864;2022-11-20T06:58:38;21.02;;;8.20;;
74080;SDS011;62438;52.228;6.864;2022-11-20T07:00:39;18.48;;;7.68;;
74080;SDS011;62438;52.228;6.864;2022-11-20T07:02:39;22.98;;;9.40;;
74080;SDS011;62438;52.228;6.864;2022-11-20T07:04:40;19.30;;;7.22;;
74080;SDS011;62438;52.228;6.864;2022-11-20T07:06:40;22.60;;;8.55;;
74080;SDS011;62438;52.228;6.864;2022-11-20T07:08:40;17.23;;;7.63;;
74080;SDS011;62438;52.228;6.864;2022-11-20T07:10:41;18.08;;;8.10;;
74080;SDS011;62438;52.228;6.864;2022-11-20T07:12:41;23.25;;;10.20;;
74080;SDS011;62438;52.228;6.864;2022-11-20T07:14:41;19.77;;;8.70;;
74080;SDS011;62438;52.228;6.864;2022-11-20T07:16:42;19.92;;;7.68;;
74080;SDS011;62438;52.228;6.864;2022-11-20T07:18:42;19.33;;;8.00;;
74080;SDS011;62438;52.228;6.864;2022-11-20T07:20:42;22.38;;;8.40;;
74080;SDS011;62438;52.228;6.864;2022-11-20T07:22:43;22.95;;;10.60;;
74080;SDS011;62438;52.228;6.864;2022-11-20T07:24:43;24.15;;;10.35;;
74080;SDS011;62438;52.228;6.864;2022-11-20T07:26:46;27.83;;;9.95;;
74080;SDS011;62438;52.228;6.864;2022-11-20T07:28:48;27.35;;;9.88;;
74080;SDS011;62438;52.228;6.864;2022-11-20T07:30:51;24.63;;;10.55;;
74080;SDS011;62438;52.228;6.864;2022-11-20T07:32:55;22.05;;;8.98;;
74080;SDS011;62438;52.228;6.864;2022-11-20T07:34:56;19.67;;;9.98;;
74080;SDS011;62438;52.228;6.864;2022-11-20T07:36:56;21.73;;;8.50;;
74080;SDS011;62438;52.228;6.864;2022-11-20T07:38:56;20.45;;;8.55;;
74080;SDS011;62438;52.228;6.864;2022-11-20T07:40:57;20.15;;;8.98;;
74080;SDS011;62438;52.228;6.864;2022-11-20T07:42:57;22.63;;;9.25;;
74080;SDS011;62438;52.228;6.864;2022-11-20T07:44:58;20.67;;;8.88;;
74080;SDS011;62438;52.228;6.864;2022-11-20T07:46:58;24.45;;;10.30;;
74080;SDS011;62438;52.228;6.864;2022-11-20T07:48:58;22.98;;;10.15;;
74080;SDS011;62438;52.228;6.864;2022-11-20T07:50:59;25.25;;;10.23;;
74080;SDS011;62438;52.228;6.864;2022-11-20T07:53:00;25.02;;;10.52;;
74080;SDS011;62438;52.228;6.864;2022-11-20T07:55:02;24.27;;;9.30;;
74080;SDS011;62438;52.228;6.864;2022-11-20T07:57:03;22.52;;;11.20;;
74080;SDS011;62438;52.228;6.864;2022-11-20T07:59:03;28.60;;;13.60;;
74080;SDS011;62438;52.228;6.864;2022-11-20T08:01:07;23.50;;;10.45;;
74080;SDS011;62438;52.228;6.864;2022-11-20T08:03:08;24.92;;;11.18;;
74080;SDS011;62438;52.228;6.864;2022-11-20T08:05:08;23.98;;;10.85;;
74080;SDS011;62438;52.228;6.864;2022-11-20T08:07:09;27.33;;;12.20;;
74080;SDS011;62438;52.228;6.864;2022-11-20T08:09:10;24.30;;;12.13;;
74080;SDS011;62438;52.228;6.864;2022-11-20T08:11:10;26.90;;;12.10;;
74080;SDS011;62438;52.228;6.864;2022-11-20T08:13:39;27.08;;;12.32;;
74080;SDS011;62438;52.228;6.864;2022-11-20T08:15:58;27.67;;;11.98;;
74080;SDS011;62438;52.228;6.864;2022-11-20T08:17:59;29.55;;;13.18;;
74080;SDS011;62438;52.228;6.864;2022-11-20T08:20:11;26.80;;;11.55;;
74080;SDS011;62438;52.228;6.864;2022-11-20T08:22:11;24.05;;;10.77;;
74080;SDS011;62438;52.228;6.864;2022-11-20T08:24:11;27.58;;;12.05;;
74080;SDS011;62438;52.228;6.864;2022-11-20T08:26:12;21.60;;;11.13;;
74080;SDS011;62438;52.228;6.864;2022-11-20T08:28:12;25.50;;;11.18;;
74080;SDS011;62438;52.228;6.864;2022-11-20T08:30:13;29.33;;;11.20;;
74080;SDS011;62438;52.228;6.864;2022-11-20T08:32:13;23.95;;;11.23;;
74080;SDS011;62438;52.228;6.864;2022-11-20T08:34:14;25.90;;;11.43;;
74080;SDS011;62438;52.228;6.864;2022-11-20T08:36:14;26.15;;;10.23;;
74080;SDS011;62438;52.228;6.864;2022-11-20T08:38:15;25.80;;;11.63;;
74080;SDS011;62438;52.228;6.864;2022-11-20T08:40:15;27.40;;;12.27;;
74080;SDS011;62438;52.228;6.864;2022-11-20T08:42:16;27.98;;;12.95;;
74080;SDS011;62438;52.228;6.864;2022-11-20T08:44:16;32.70;;;15.00;;
74080;SDS011;62438;52.228;6.864;2022-11-20T08:46:17;27.85;;;13.38;;
74080;SDS011;62438;52.228;6.864;2022-11-20T08:48:18;25.83;;;11.80;;
74080;SDS011;62438;52.228;6.864;2022-11-20T08:50:18;26.98;;;12.38;;
74080;SDS011;62438;52.228;6.864;2022-11-20T08:52:19;28.58;;;12.73;;
74080;SDS011;62438;52.228;6.864;2022-11-20T08:54:19;26.85;;;11.77;;
74080;SDS011;62438;52.228;6.864;2022-11-20T08:56:21;26.02;;;12.30;;
74080;SDS011;62438;52.228;6.864;2022-11-20T08:58:22;31.05;;;12.02;;
74080;SDS011;62438;52.228;6.864;2022-11-20T09:00:22;27.55;;;13.27;;
74080;SDS011;62438;52.228;6.864;2022-11-20T09:02:23;31.73;;;13.77;;
74080;SDS011;62438;52.228;6.864;2022-11-20T09:04:23;29.98;;;12.70;;
74080;SDS011;62438;52.228;6.864;2022-11-20T09:06:24;28.00;;;12.02;;
74080;SDS011;62438;52.228;6.864;2022-11-20T09:08:24;28.40;;;11.82;;
74080;SDS011;62438;52.228;6.864;2022-11-20T09:10:27;27.23;;;12.88;;
74080;SDS011;62438;52.228;6.864;2022-11-20T09:12:28;27.13;;;12.60;;
74080;SDS011;62438;52.228;6.864;2022-11-20T09:14:28;28.75;;;12.18;;
74080;SDS011;62438;52.228;6.864;2022-11-20T09:16:30;42.65;;;15.57;;
74080;SDS011;62438;52.228;6.864;2022-11-20T09:18:30;44.63;;;17.83;;
74080;SDS011;62438;52.228;6.864;2022-11-20T09:20:36;34.53;;;14.55;;
74080;SDS011;62438;52.228;6.864;2022-11-20T09:22:39;26.27;;;12.35;;
74080;SDS011;62438;52.228;6.864;2022-11-20T09:26:40;23.45;;;10.85;;
74080;SDS011;62438;52.228;6.864;2022-11-20T09:28:40;27.45;;;11.95;;
74080;SDS011;62438;52.228;6.864;2022-11-20T09:30:41;26.60;;;11.43;;
74080;SDS011;62438;52.228;6.864;2022-11-20T09:32:42;28.80;;;12.05;;
74080;SDS011;62438;52.228;6.864;2022-11-20T09:34:43;25.65;;;12.38;;
74080;SDS011;62438;52.228;6.864;2022-11-20T09:36:43;26.38;;;11.82;;
74080;SDS011;62438;52.228;6.864;2022-11-20T09:38:47;24.85;;;11.25;;
74080;SDS011;62438;52.228;6.864;2022-11-20T09:40:53;28.20;;;12.05;;
74080;SDS011;62438;52.228;6.864;2022-11-20T09:42:59;28.23;;;12.18;;
74080;SDS011;62438;52.228;6.864;2022-11-20T09:45:23;23.65;;;11.25;;
74080;SDS011;62438;52.228;6.864;2022-11-20T09:52:35;23.70;;;11.07;;
74080;SDS011;62438;52.228;6.864;2022-11-20T09:55:06;27.52;;;12.85;;
74080;SDS011;62438;52.228;6.864;2022-11-20T09:57:32;26.77;;;12.60;;
74080;SDS011;62438;52.228;6.864;2022-11-20T09:59:38;30.02;;;13.30;;
74080;SDS011;62438;52.228;6.864;2022-11-20T10:01:41;28.65;;;13.10;;
74080;SDS011;62438;52.228;6.864;2022-11-20T10:03:45;28.08;;;12.13;;
74080;SDS011;62438;52.228;6.864;2022-11-20T10:05:59;28.42;;;12.48;;
74080;SDS011;62438;52.228;6.864;2022-11-20T10:10:34;29.50;;;12.52;;
74080;SDS011;62438;52.228;6.864;2022-11-20T10:21:58;25.48;;;12.35;;
74080;SDS011;62438;52.228;6.864;2022-11-20T10:24:25;27.73;;;11.88;;
74080;SDS011;62438;52.228;6.864;2022-11-20T10:29:11;23.55;;;10.98;;
74080;SDS011;62438;52.228;6.864;2022-11-20T10:31:17;24.67;;;11.63;;
74080;SDS011;62438;52.228;6.864;2022-11-20T10:33:39;25.08;;;12.00;;
74080;SDS011;62438;52.228;6.864;2022-11-20T10:35:45;24.52;;;11.65;;
74080;SDS011;62438;52.228;6.864;2022-11-20T10:38:01;22.77;;;10.30;;
74080;SDS011;62438;52.228;6.864;2022-11-20T10:42:22;24.67;;;11.05;;
74080;SDS011;62438;52.228;6.864;2022-11-20T10:44:47;23.90;;;10.75;;
74080;SDS011;62438;52.228;6.864;2022-11-20T10:47:03;21.23;;;9.95;;
74080;SDS011;62438;52.228;6.864;2022-11-20T10:55:50;21.15;;;8.73;;
74080;SDS011;62438;52.228;6.864;2022-11-20T11:00:05;21.52;;;9.80;;
74080;SDS011;62438;52.228;6.864;2022-11-20T11:02:20;19.42;;;9.60;;
74080;SDS011;62438;52.228;6.864;2022-11-20T11:04:40;20.42;;;8.32;;
74080;SDS011;62438;52.228;6.864;2022-11-20T11:06:46;22.35;;;10.82;;
74080;SDS011;62438;52.228;6.864;2022-11-20T11:08:49;21.20;;;10.35;;
74080;SDS011;62438;52.228;6.864;2022-11-20T11:10:53;20.48;;;9.75;;
74080;SDS011;62438;52.228;6.864;2022-11-20T11:12:56;20.60;;;10.27;;
74080;SDS011;62438;52.228;6.864;2022-11-20T11:14:57;23.23;;;9.70;;
74080;SDS011;62438;52.228;6.864;2022-11-20T11:16:57;26.23;;;12.15;;
74080;SDS011;62438;52.228;6.864;2022-11-20T11:19:05;22.65;;;10.40;;
74080;SDS011;62438;52.228;6.864;2022-11-20T11:21:08;24.33;;;11.48;;
74080;SDS011;62438;52.228;6.864;2022-11-20T11:23:11;24.98;;;11.20;;
74080;SDS011;62438;52.228;6.864;2022-11-20T11:25:38;23.60;;;10.80;;
74080;SDS011;62438;52.228;6.864;2022-11-20T11:27:49;24.27;;;10.57;;
74080;SDS011;62438;52.228;6.864;2022-11-20T11:29:50;25.83;;;11.52;;
74080;SDS011;62438;52.228;6.864;2022-11-20T11:32:13;25.50;;;11.63;;
74080;SDS011;62438;52.228;6.864;2022-11-20T11:34:16;23.75;;;11.63;;
74080;SDS011;62438;52.228;6.864;2022-11-20T11:36:18;26.17;;;11.57;;
74080;SDS011;62438;52.228;6.864;2022-11-20T11:38:34;20.05;;;10.23;;
74080;SDS011;62438;52.228;6.864;2022-11-20T11:40:37;24.08;;;10.57;;
74080;SDS011;62438;52.228;6.864;2022-11-20T11:42:44;20.60;;;9.98;;
74080;SDS011;62438;52.228;6.864;2022-11-20T11:44:50;25.15;;;10.45;;
74080;SDS011;62438;52.228;6.864;2022-11-20T11:47:11;22.25;;;11.32;;
74080;SDS011;62438;52.228;6.864;2022-11-20T11:49:23;23.20;;;10.35;;
74080;SDS011;62438;52.228;6.864;2022-11-20T11:51:25;22.95;;;11.25;;
74080;SDS011;62438;52.228;6.864;2022-11-20T11:53:29;22.65;;;10.15;;
74080;SDS011;62438;52.228;6.864;2022-11-20T11:57:37;19.98;;;10.02;;
74080;SDS011;62438;52.228;6.864;2022-11-20T11:59:47;21.83;;;10.80;;
74080;SDS011;62438;52.228;6.864;2022-11-20T12:02:01;19.58;;;9.05;;
74080;SDS011;62438;52.228;6.864;2022-11-20T12:04:37;20.65;;;9.23;;
74080;SDS011;62438;52.228;6.864;2022-11-20T12:06:58;19.15;;;9.20;;
74080;SDS011;62438;52.228;6.864;2022-11-20T12:09:04;16.90;;;7.30;;
74080;SDS011;62438;52.228;6.864;2022-11-20T12:15:33;19.50;;;9.30;;
74080;SDS011;62438;52.228;6.864;2022-11-20T12:17:34;18.92;;;9.55;;
74080;SDS011;62438;52.228;6.864;2022-11-20T12:19:35;17.85;;;9.35;;
74080;SDS011;62438;52.228;6.864;2022-11-20T12:21:38;16.25;;;8.90;;
74080;SDS011;62438;52.228;6.864;2022-11-20T12:24:19;16.35;;;7.43;;
74080;SDS011;62438;52.228;6.864;2022-11-20T12:35:42;16.90;;;6.68;;
74080;SDS011;62438;52.228;6.864;2022-11-20T12:43:41;14.63;;;6.68;;
74080;SDS011;62438;52.228;6.864;2022-11-20T12:48:17;15.15;;;7.50;;
74080;SDS011;62438;52.228;6.864;2022-11-20T12:52:48;15.02;;;8.30;;
74080;SDS011;62438;52.228;6.864;2022-11-20T13:01:09;16.67;;;8.23;;
74080;SDS011;62438;52.228;6.864;2022-11-20T13:03:44;15.27;;;7.20;;
74080;SDS011;62438;52.228;6.864;2022-11-20T13:08:07;15.80;;;7.15;;
74080;SDS011;62438;52.228;6.864;2022-11-20T13:12:44;16.60;;;8.32;;
74080;SDS011;62438;52.228;6.864;2022-11-20T13:19:36;19.20;;;8.30;;
74080;SDS011;62438;52.228;6.864;2022-11-20T13:21:39;17.27;;;8.25;;
74080;SDS011;62438;52.228;6.864;2022-11-20T13:23:41;18.45;;;8.70;;
74080;SDS011;62438;52.228;6.864;2022-11-20T13:25:41;19.88;;;8.75;;
74080;SDS011;62438;52.228;6.864;2022-11-20T13:27:48;17.20;;;8.13;;
74080;SDS011;62438;52.228;6.864;2022-11-20T13:32:18;17.02;;;8.25;;
74080;SDS011;62438;52.228;6.864;2022-11-20T13:34:24;18.80;;;8.18;;
74080;SDS011;62438;52.228;6.864;2022-11-20T13:36:27;17.70;;;8.23;;
74080;SDS011;62438;52.228;6.864;2022-11-20T13:38:49;21.08;;;9.50;;
74080;SDS011;62438;52.228;6.864;2022-11-20T13:40:55;18.00;;;7.88;;
74080;SDS011;62438;52.228;6.864;2022-11-20T13:45:37;18.13;;;7.53;;